createdAt,value
2018-12-17T00:01:36.889Z,10.73
2018-12-17T00:04:04.316Z,11.37
2018-12-17T00:06:31.560Z,11.50
2018-12-17T00:08:58.803Z,11.30
2018-12-17T00:11:26.233Z,12.00
2018-12-17T00:13:53.456Z,11.83
2018-12-17T00:16:21.016Z,11.37
2018-12-17T00:18:48.281Z,12.37
2018-12-17T00:21:15.504Z,11.93
2018-12-17T00:23:42.767Z,12.07
2018-12-17T00:26:10.121Z,12.73
2018-12-17T00:28:37.475Z,12.20
2018-12-17T00:31:04.815Z,13.33
2018-12-17T00:33:32.073Z,13.37
2018-12-17T00:35:59.299Z,14.00
2018-12-17T00:38:26.524Z,13.07
2018-12-17T00:40:53.745Z,13.77
2018-12-17T00:43:21.290Z,12.37
2018-12-17T00:45:48.851Z,13.23
2018-12-17T00:48:16.301Z,13.93
2018-12-17T00:50:43.527Z,14.50
2018-12-17T00:53:10.761Z,14.20
2018-12-17T00:55:38.021Z,13.47
2018-12-17T00:58:05.372Z,13.90
2018-12-17T01:00:32.861Z,14.77
2018-12-17T01:03:00.118Z,14.57
2018-12-17T01:05:27.435Z,16.17
2018-12-17T01:07:54.663Z,14.57
2018-12-17T01:10:22.041Z,14.37
2018-12-17T01:12:49.259Z,13.83
2018-12-17T01:15:16.513Z,14.13
2018-12-17T01:17:43.875Z,14.43
2018-12-17T01:20:11.309Z,14.37
2018-12-17T01:22:38.578Z,14.03
2018-12-17T01:25:06.081Z,14.97
2018-12-17T01:27:33.319Z,14.30
2018-12-17T01:30:00.556Z,13.97
2018-12-17T01:32:27.838Z,14.77
2018-12-17T01:34:55.998Z,14.87
2018-12-17T01:37:23.240Z,13.80
2018-12-17T01:39:50.617Z,15.40
2018-12-17T01:42:17.952Z,15.77
2018-12-17T01:44:45.193Z,15.70
2018-12-17T01:47:12.481Z,14.40
2018-12-17T01:49:39.825Z,14.53
2018-12-17T01:52:07.057Z,13.33
2018-12-17T01:54:34.332Z,12.93
2018-12-17T01:57:01.590Z,13.80
2018-12-17T01:59:28.959Z,14.77
2018-12-17T02:01:56.473Z,14.20
2018-12-17T02:04:23.745Z,14.33
2018-12-17T02:06:51.014Z,14.97
2018-12-17T02:09:18.393Z,13.47
2018-12-17T02:11:45.749Z,13.83
2018-12-17T02:14:13.066Z,15.00
2018-12-17T02:16:40.338Z,15.03
2018-12-17T02:19:07.566Z,14.53
2018-12-17T02:21:34.919Z,14.37
2018-12-17T02:24:02.399Z,14.37
2018-12-17T02:26:29.888Z,15.10
2018-12-17T02:28:57.108Z,15.37
2018-12-17T02:31:24.414Z,14.63
2018-12-17T02:33:51.680Z,14.83
2018-12-17T02:36:19.016Z,15.10
2018-12-17T02:38:46.294Z,16.00
2018-12-17T02:41:13.636Z,14.47
2018-12-17T02:43:40.849Z,15.00
2018-12-17T02:46:08.129Z,15.17
2018-12-17T02:48:35.366Z,15.57
2018-12-17T02:51:02.753Z,15.27
2018-12-17T02:53:30.045Z,14.20
2018-12-17T02:55:57.306Z,15.47
2018-12-17T02:58:24.553Z,14.83
2018-12-17T03:00:51.953Z,13.47
2018-12-17T03:03:19.193Z,14.33
2018-12-17T03:05:46.555Z,15.03
2018-12-17T03:08:14.003Z,13.70
2018-12-17T03:10:41.271Z,15.30
2018-12-17T03:13:08.519Z,15.17
2018-12-17T03:15:35.875Z,13.77
2018-12-17T03:18:03.326Z,14.33
2018-12-17T03:20:30.549Z,14.47
2018-12-17T03:22:57.837Z,13.63
2018-12-17T03:25:25.063Z,14.90
2018-12-17T03:27:52.375Z,13.67
2018-12-17T03:30:19.674Z,14.03
2018-12-17T03:32:47.051Z,13.73
2018-12-17T03:35:14.490Z,13.83
2018-12-17T03:37:41.763Z,13.10
2018-12-17T03:40:09.206Z,14.10
2018-12-17T03:42:36.438Z,14.17
2018-12-17T03:45:04.068Z,13.83
2018-12-17T03:47:31.288Z,13.93
2018-12-17T03:49:58.517Z,14.63
2018-12-17T03:52:25.850Z,14.87
2018-12-17T03:54:53.086Z,14.23
2018-12-17T03:57:20.407Z,15.03
2018-12-17T03:59:47.678Z,14.20
2018-12-17T04:02:14.881Z,15.50
2018-12-17T04:04:42.704Z,14.80
2018-12-17T04:07:09.953Z,14.73
2018-12-17T04:09:37.279Z,15.10
2018-12-17T04:12:04.599Z,14.17
2018-12-17T04:14:31.978Z,14.83
2018-12-17T04:16:59.193Z,15.40
2018-12-17T04:19:26.435Z,15.30
2018-12-17T04:21:53.670Z,14.93
2018-12-17T04:24:20.873Z,14.80
2018-12-17T04:26:48.100Z,14.63
2018-12-17T04:29:15.362Z,14.23
2018-12-17T04:31:42.570Z,15.37
2018-12-17T04:34:09.783Z,15.40
2018-12-17T04:36:37.049Z,14.83
2018-12-17T04:39:05.739Z,16.50
2018-12-17T04:41:32.915Z,15.30
2018-12-17T04:44:00.170Z,16.93
2018-12-17T04:46:27.453Z,14.77
2018-12-17T04:48:54.656Z,15.73
2018-12-17T04:51:22.018Z,15.70
2018-12-17T04:53:49.231Z,15.00
2018-12-17T04:56:16.476Z,15.60
2018-12-17T04:58:43.750Z,15.37
2018-12-17T05:01:10.977Z,16.20
2018-12-17T05:03:38.168Z,15.80
2018-12-17T05:06:05.417Z,15.70
2018-12-17T05:08:32.628Z,14.60
2018-12-17T05:10:59.796Z,15.73
2018-12-17T05:13:27.035Z,15.77
2018-12-17T05:15:54.233Z,15.80
2018-12-17T05:18:21.478Z,15.47
2018-12-17T05:20:48.743Z,15.77
2018-12-17T05:23:15.953Z,16.53
2018-12-17T05:25:43.180Z,16.37
2018-12-17T05:28:10.570Z,16.33
2018-12-17T05:30:37.764Z,17.10
2018-12-17T05:33:05.301Z,15.77
2018-12-17T05:35:32.555Z,16.73
2018-12-17T05:37:59.748Z,16.03
2018-12-17T05:40:27.016Z,15.90
2018-12-17T05:42:54.279Z,15.73
2018-12-17T05:45:21.507Z,16.57
2018-12-17T05:47:48.685Z,15.53
2018-12-17T05:50:15.921Z,16.13
2018-12-17T05:52:43.138Z,16.40
2018-12-17T05:55:10.525Z,15.80
2018-12-17T05:57:37.789Z,15.37
2018-12-17T06:00:06.455Z,16.07
2018-12-17T06:02:33.667Z,16.63
2018-12-17T06:05:00.913Z,15.10
2018-12-17T06:07:28.110Z,15.43
2018-12-17T06:09:55.338Z,15.13
2018-12-17T06:12:22.697Z,16.20
2018-12-17T06:14:49.906Z,14.40
2018-12-17T06:17:17.225Z,15.83
2018-12-17T06:19:44.482Z,14.37
2018-12-17T06:22:11.721Z,15.23
2018-12-17T06:24:38.910Z,15.50
2018-12-17T06:27:06.149Z,14.57
2018-12-17T06:29:35.677Z,13.13
2018-12-17T06:32:02.737Z,14.27
2018-12-17T06:34:29.988Z,13.80
2018-12-17T06:36:57.291Z,14.97
2018-12-17T06:39:24.538Z,13.67
2018-12-17T06:41:51.817Z,13.73
2018-12-17T06:44:19.032Z,14.43
2018-12-17T06:46:46.280Z,14.07
2018-12-17T06:49:13.584Z,14.23
2018-12-17T06:51:41.149Z,14.73
2018-12-17T06:54:08.370Z,13.33
2018-12-17T06:56:35.612Z,15.07
2018-12-17T06:59:02.952Z,14.57
2018-12-17T07:01:30.413Z,13.90
2018-12-17T07:03:57.751Z,14.47
2018-12-17T07:06:25.009Z,15.80
2018-12-17T07:08:52.259Z,14.70
2018-12-17T07:11:19.633Z,14.00
2018-12-17T07:13:46.864Z,14.93
2018-12-17T07:16:14.122Z,13.67
2018-12-17T07:18:41.390Z,14.03
2018-12-17T07:21:08.762Z,14.43
2018-12-17T07:23:35.974Z,13.73
2018-12-17T07:26:03.371Z,14.13
2018-12-17T07:28:30.600Z,14.17
2018-12-17T07:30:57.800Z,13.60
2018-12-17T07:33:25.052Z,14.37
2018-12-17T07:35:52.322Z,13.37
2018-12-17T07:38:19.520Z,13.67
2018-12-17T07:40:46.758Z,13.90
2018-12-17T07:43:13.977Z,13.77
2018-12-17T07:45:41.232Z,14.37
2018-12-17T07:48:08.501Z,14.17
2018-12-17T07:50:35.718Z,14.20
2018-12-17T07:53:03.170Z,14.63
2018-12-17T07:55:30.529Z,14.63
2018-12-17T07:57:57.709Z,14.23
2018-12-17T08:00:24.977Z,13.97
2018-12-17T08:02:52.241Z,15.07
2018-12-17T08:05:19.461Z,14.87
2018-12-17T08:07:46.642Z,15.97
2018-12-17T08:10:13.877Z,15.63
2018-12-17T08:12:41.091Z,15.87
2018-12-17T08:15:08.429Z,16.30
2018-12-17T08:17:35.658Z,15.07
2018-12-17T08:20:03.249Z,16.90
2018-12-17T08:22:30.605Z,15.20
2018-12-17T08:24:57.851Z,15.80
2018-12-17T08:27:25.037Z,15.17
2018-12-17T08:29:52.229Z,16.70
2018-12-17T08:32:19.460Z,16.17
2018-12-17T08:34:46.675Z,16.87
2018-12-17T08:37:13.877Z,17.03
2018-12-17T08:39:41.112Z,15.90
2018-12-17T08:42:08.360Z,15.70
2018-12-17T08:44:35.662Z,16.73
2018-12-17T08:47:03.116Z,16.60
2018-12-17T08:49:30.446Z,17.00
2018-12-17T08:51:57.644Z,16.60
2018-12-17T08:54:24.881Z,15.60
2018-12-17T08:56:52.093Z,16.80
2018-12-17T08:59:19.394Z,16.23
2018-12-17T09:01:46.985Z,15.90
2018-12-17T09:04:14.226Z,16.33
2018-12-17T09:06:41.551Z,16.63
2018-12-17T09:09:08.913Z,15.90
2018-12-17T09:11:36.246Z,15.30
2018-12-17T09:14:03.645Z,16.20
2018-12-17T09:16:30.940Z,15.97
2018-12-17T09:18:58.160Z,16.17
2018-12-17T09:21:25.398Z,16.83
2018-12-17T09:23:52.642Z,15.70
2018-12-17T09:26:19.868Z,16.23
2018-12-17T09:28:47.068Z,17.00
2018-12-17T09:31:14.400Z,16.97
2018-12-17T09:33:41.725Z,16.27
2018-12-17T09:36:09.153Z,16.40
2018-12-17T09:38:36.519Z,17.70
2018-12-17T09:41:03.877Z,17.40
2018-12-17T09:43:31.200Z,16.17
2018-12-17T09:45:58.453Z,20.03
2018-12-17T09:48:25.682Z,17.87
2018-12-17T09:50:53.022Z,17.53
2018-12-17T09:53:20.225Z,17.77
2018-12-17T09:55:47.560Z,17.07
2018-12-17T09:58:14.796Z,17.53
2018-12-17T10:00:42.175Z,17.30
2018-12-17T10:03:09.387Z,17.30
2018-12-17T10:05:36.589Z,17.33
2018-12-17T10:08:03.945Z,17.50
2018-12-17T10:10:31.270Z,17.97
2018-12-17T10:12:58.452Z,18.13
2018-12-17T10:15:25.749Z,16.53
2018-12-17T10:17:53.013Z,16.40
2018-12-17T10:20:20.334Z,17.77
2018-12-17T10:22:47.650Z,17.47
2018-12-17T10:25:14.913Z,16.93
2018-12-17T10:27:42.180Z,16.73
2018-12-17T10:30:09.527Z,17.20
2018-12-17T10:32:36.756Z,17.27
2018-12-17T10:35:04.285Z,16.90
2018-12-17T10:37:32.117Z,18.30
2018-12-17T10:39:59.430Z,17.33
2018-12-17T10:42:26.645Z,17.50
2018-12-17T10:44:53.914Z,17.50
2018-12-17T10:47:21.148Z,18.57
2018-12-17T10:49:48.366Z,19.27
2018-12-17T10:52:15.734Z,19.00
2018-12-17T10:54:42.946Z,18.40
2018-12-17T10:57:10.163Z,17.77
2018-12-17T10:59:37.418Z,16.80
2018-12-17T11:02:14.417Z,17.80
2018-12-17T11:04:53.193Z,16.80
2018-12-17T11:07:20.521Z,17.30
2018-12-17T11:09:47.840Z,16.90
2018-12-17T11:12:15.277Z,19.20
2018-12-17T11:14:42.505Z,18.63
2018-12-17T11:17:09.712Z,17.90
2018-12-17T11:19:36.953Z,17.63
2018-12-17T11:22:04.185Z,17.63
2018-12-17T11:24:31.392Z,18.63
2018-12-17T11:26:58.661Z,18.63
2018-12-17T11:29:25.856Z,17.97
2018-12-17T11:31:53.096Z,18.60
2018-12-17T11:34:20.340Z,18.70
2018-12-17T11:36:47.546Z,18.83
2018-12-17T11:39:14.882Z,18.27
2018-12-17T11:41:42.175Z,19.67
2018-12-17T11:44:09.437Z,18.77
2018-12-17T11:46:36.693Z,19.40
2018-12-17T11:49:04.050Z,20.93
2018-12-17T11:51:31.410Z,18.33
2018-12-17T11:53:58.866Z,20.10
2018-12-17T11:57:10.585Z,19.13
2018-12-17T11:59:37.781Z,20.43
2018-12-17T12:02:05.129Z,20.23
2018-12-17T12:04:32.361Z,20.73
2018-12-17T12:06:59.649Z,21.87
2018-12-17T12:09:26.946Z,21.77
2018-12-17T12:11:54.193Z,20.90
2018-12-17T12:14:21.474Z,21.20
2018-12-17T12:16:48.733Z,20.37
2018-12-17T12:19:15.986Z,22.43
2018-12-17T12:21:43.199Z,20.63
2018-12-17T12:24:10.435Z,21.57
2018-12-17T12:26:37.723Z,21.23
2018-12-17T12:29:04.959Z,21.30
2018-12-17T12:31:32.169Z,21.47
2018-12-17T12:33:59.469Z,21.93
2018-12-17T12:36:26.716Z,20.83
2018-12-17T12:38:53.929Z,21.03
2018-12-17T12:41:21.193Z,21.17
2018-12-17T12:43:48.406Z,20.43
2018-12-17T12:46:15.660Z,20.93
2018-12-17T12:48:42.935Z,21.83
2018-12-17T12:51:10.154Z,23.43
2018-12-17T12:53:37.421Z,21.73
2018-12-17T12:56:04.798Z,21.47
2018-12-17T12:58:32.023Z,20.47
2018-12-17T13:00:59.242Z,21.87
2018-12-17T13:03:26.553Z,21.83
2018-12-17T13:05:53.760Z,22.03
2018-12-17T13:08:21.001Z,22.10
2018-12-17T13:10:48.268Z,21.10
2018-12-17T13:13:15.637Z,21.77
2018-12-17T13:15:42.968Z,22.70
2018-12-17T13:18:10.222Z,21.77
2018-12-17T13:20:37.430Z,21.80
2018-12-17T13:23:05.415Z,22.37
2018-12-17T13:25:37.340Z,22.17
2018-12-17T13:28:04.691Z,22.77
2018-12-17T13:30:32.037Z,22.13
2018-12-17T13:32:59.292Z,22.60
2018-12-17T13:35:26.484Z,21.97
2018-12-17T13:37:53.702Z,21.27
2018-12-17T13:40:21.164Z,22.00
2018-12-17T13:42:48.392Z,22.90
2018-12-17T13:45:15.740Z,22.83
2018-12-17T13:47:43.141Z,23.10
2018-12-17T13:50:16.342Z,22.03
2018-12-17T13:52:45.804Z,21.80
2018-12-17T13:55:13.436Z,21.47
2018-12-17T13:57:40.673Z,21.43
2018-12-17T14:00:09.362Z,22.53
2018-12-17T14:02:36.691Z,23.33
2018-12-17T14:05:04.225Z,23.33
2018-12-17T14:07:31.532Z,22.40
2018-12-17T14:10:04.489Z,23.53
2018-12-17T14:12:31.775Z,22.97
2018-12-17T14:14:58.978Z,22.17
2018-12-17T14:17:31.962Z,22.57
2018-12-17T14:20:04.888Z,22.60
2018-12-17T14:22:32.132Z,21.90
2018-12-17T14:24:59.346Z,22.73
2018-12-17T14:27:26.569Z,22.07
2018-12-17T14:29:53.890Z,24.03
2018-12-17T14:32:21.106Z,22.83
2018-12-17T14:34:48.315Z,22.20
2018-12-17T14:37:15.585Z,22.70
2018-12-17T14:39:42.929Z,22.27
2018-12-17T14:42:10.156Z,23.83
2018-12-17T14:44:37.392Z,24.17
2018-12-17T14:47:04.891Z,23.03
2018-12-17T14:49:32.109Z,23.80
2018-12-17T14:51:59.365Z,23.17
2018-12-17T14:54:26.682Z,23.07
2018-12-17T14:56:54.023Z,23.43
2018-12-17T14:59:21.407Z,22.27
2018-12-17T15:01:48.933Z,22.37
2018-12-17T15:04:16.147Z,21.53
2018-12-17T15:06:43.402Z,23.43
2018-12-17T15:09:10.728Z,24.00
2018-12-17T15:11:38.063Z,22.13
2018-12-17T15:14:05.413Z,23.07
2018-12-17T15:16:32.738Z,23.10
2018-12-17T15:18:59.980Z,24.03
2018-12-17T15:21:27.342Z,21.57
2018-12-17T15:23:54.595Z,23.50
2018-12-17T15:26:21.892Z,22.03
2018-12-17T15:28:49.182Z,21.50
2018-12-17T15:31:16.459Z,23.70
2018-12-17T15:33:43.690Z,23.00
2018-12-17T15:36:11.055Z,23.80
2018-12-17T15:38:38.283Z,22.93
2018-12-17T15:41:05.497Z,22.27
2018-12-17T15:43:33.108Z,23.07
2018-12-17T15:46:00.329Z,21.87
2018-12-17T15:48:27.541Z,22.90
2018-12-17T15:50:54.775Z,23.17
2018-12-17T15:53:21.987Z,24.00
2018-12-17T15:55:49.275Z,23.93
2018-12-17T15:58:16.521Z,23.60
2018-12-17T16:00:43.724Z,23.60
2018-12-17T16:03:10.960Z,23.27
2018-12-17T16:05:38.213Z,23.93
2018-12-17T16:08:05.445Z,21.63
2018-12-17T16:10:32.653Z,24.60
2018-12-17T16:12:59.897Z,23.40
2018-12-17T16:15:27.215Z,23.30
2018-12-17T16:17:54.417Z,23.27
2018-12-17T16:20:21.635Z,23.47
2018-12-17T16:22:48.813Z,23.03
2018-12-17T16:25:16.140Z,22.87
2018-12-17T16:27:43.377Z,23.77
2018-12-17T16:30:11.190Z,24.67
2018-12-17T16:32:38.540Z,24.70
2018-12-17T16:35:05.985Z,23.07
2018-12-17T16:37:33.326Z,22.77
2018-12-17T16:40:00.546Z,23.77
2018-12-17T16:42:27.789Z,22.40
2018-12-17T16:44:54.995Z,23.37
2018-12-17T16:47:22.305Z,23.27
2018-12-17T16:49:49.576Z,25.30
2018-12-17T16:52:16.907Z,24.53
2018-12-17T16:54:44.089Z,23.73
2018-12-17T16:57:11.316Z,23.77
2018-12-17T16:59:38.521Z,23.83
2018-12-17T17:02:05.791Z,24.17
2018-12-17T17:04:33.117Z,25.33
2018-12-17T17:07:00.317Z,24.60
2018-12-17T17:09:27.563Z,24.70
2018-12-17T17:11:54.797Z,23.83
2018-12-17T17:14:21.992Z,24.10
2018-12-17T17:16:49.548Z,24.37
2018-12-17T17:19:16.769Z,25.30
2018-12-17T17:21:44.230Z,27.07
2018-12-17T17:24:11.557Z,25.73
2018-12-17T17:26:38.924Z,26.07
2018-12-17T17:29:06.161Z,26.17
2018-12-17T17:31:33.568Z,25.77
2018-12-17T17:34:00.877Z,26.07
2018-12-17T17:36:28.081Z,27.30
2018-12-17T17:38:57.650Z,25.83
2018-12-17T17:41:24.899Z,27.30
2018-12-17T17:43:52.129Z,26.07
2018-12-17T17:46:19.323Z,26.23
2018-12-17T17:48:46.657Z,26.00
2018-12-17T17:51:13.876Z,24.93
2018-12-17T17:53:41.089Z,26.07
2018-12-17T17:56:08.378Z,26.00
2018-12-17T17:58:35.688Z,24.63
2018-12-17T18:01:03.128Z,24.27
2018-12-17T18:03:30.361Z,26.53
2018-12-17T18:05:57.579Z,24.60
2018-12-17T18:08:24.788Z,24.10
2018-12-17T18:10:52.149Z,25.20
2018-12-17T18:13:19.360Z,25.77
2018-12-17T18:15:46.824Z,25.30
2018-12-17T18:18:14.977Z,25.83
2018-12-17T18:20:42.696Z,25.27
2018-12-17T18:23:09.881Z,26.10
2018-12-17T18:25:37.147Z,26.83
2018-12-17T18:28:04.381Z,24.90
2018-12-17T18:30:31.610Z,24.83
2018-12-17T18:32:58.940Z,27.07
2018-12-17T18:35:26.172Z,26.90
2018-12-17T18:37:53.368Z,26.57
2018-12-17T18:40:20.623Z,27.10
2018-12-17T18:42:47.850Z,26.30
2018-12-17T18:45:15.167Z,26.07
2018-12-17T18:47:42.490Z,25.87
2018-12-17T18:50:09.917Z,27.67
2018-12-17T18:52:37.137Z,25.97
2018-12-17T18:55:04.657Z,23.83
2018-12-17T18:57:31.880Z,25.30
2018-12-17T18:59:59.105Z,25.10
2018-12-17T19:02:32.861Z,24.20
2018-12-17T19:04:55.908Z,24.53
2018-12-17T19:07:23.240Z,25.13
2018-12-17T19:09:50.536Z,23.43
2018-12-17T19:12:17.739Z,23.03
2018-12-17T19:14:44.973Z,23.40
2018-12-17T19:17:12.241Z,23.57
2018-12-17T19:19:39.464Z,22.17
2018-12-17T19:22:06.708Z,21.87
2018-12-17T19:24:34.075Z,22.40
2018-12-17T19:27:01.390Z,22.70
2018-12-17T19:29:28.672Z,21.83
2018-12-17T19:31:55.936Z,23.23
2018-12-17T19:34:23.162Z,24.20
2018-12-17T19:36:50.381Z,22.17
2018-12-17T19:39:17.631Z,22.80
2018-12-17T19:41:44.885Z,22.87
2018-12-17T19:44:12.084Z,22.87
2018-12-17T19:46:39.458Z,22.73
2018-12-17T19:49:06.712Z,21.80
2018-12-17T19:51:33.921Z,22.33
2018-12-17T19:54:01.148Z,21.17
2018-12-17T19:56:28.346Z,21.53
2018-12-17T19:58:55.573Z,22.47
2018-12-17T20:01:22.939Z,23.87
2018-12-17T20:03:50.284Z,22.13
2018-12-17T20:06:17.600Z,23.93
2018-12-17T20:08:44.890Z,22.07
2018-12-17T20:11:12.201Z,22.20
2018-12-17T20:13:39.513Z,22.40
2018-12-17T20:16:06.750Z,21.63
2018-12-17T20:18:35.077Z,22.80
2018-12-17T20:21:02.392Z,22.50
2018-12-17T20:23:29.625Z,22.60
2018-12-17T20:25:56.889Z,22.50
2018-12-17T20:28:24.142Z,21.77
2018-12-17T20:30:51.546Z,20.70
2018-12-17T20:33:18.781Z,21.03
2018-12-17T20:35:45.992Z,21.43
2018-12-17T20:38:13.254Z,19.47
2018-12-17T20:40:40.570Z,20.43
2018-12-17T20:43:07.793Z,20.20
2018-12-17T20:45:35.136Z,20.43
2018-12-17T20:48:02.359Z,21.67
2018-12-17T20:50:29.589Z,21.53
2018-12-17T20:52:57.073Z,20.83
2018-12-17T20:55:30.348Z,21.00
2018-12-17T20:57:53.492Z,21.13
2018-12-17T21:00:20.734Z,19.93
2018-12-17T21:02:47.937Z,21.67
2018-12-17T21:05:15.130Z,19.83
2018-12-17T21:07:42.490Z,19.60
2018-12-17T21:10:09.879Z,20.13
2018-12-17T21:12:37.132Z,22.27
2018-12-17T21:15:05.246Z,22.17
2018-12-17T21:17:32.453Z,21.70
2018-12-17T21:19:59.680Z,22.23
2018-12-17T21:22:26.894Z,22.10
2018-12-17T21:24:54.318Z,22.10
2018-12-17T21:27:21.512Z,22.33
2018-12-17T21:29:48.773Z,20.80
2018-12-17T21:32:15.967Z,21.83
2018-12-17T21:34:43.281Z,23.17
2018-12-17T21:37:10.670Z,22.43
2018-12-17T21:39:38.017Z,22.47
2018-12-17T21:42:05.217Z,24.10
2018-12-17T21:44:32.463Z,23.40
2018-12-17T21:46:59.744Z,24.37
2018-12-17T21:49:27.148Z,23.27
2018-12-17T21:51:54.608Z,23.63
2018-12-17T21:54:21.798Z,22.90
2018-12-17T21:56:49.006Z,24.50
2018-12-17T21:59:16.276Z,22.90
2018-12-17T22:01:43.489Z,22.37
2018-12-17T22:04:10.722Z,22.43
2018-12-17T22:06:37.965Z,23.23
2018-12-17T22:09:06.837Z,23.27
2018-12-17T22:11:34.088Z,24.23
2018-12-17T22:14:01.340Z,21.63
2018-12-17T22:16:28.553Z,22.60
2018-12-17T22:18:55.889Z,24.07
2018-12-17T22:21:23.131Z,24.33
2018-12-17T22:23:50.356Z,23.40
2018-12-17T22:26:17.677Z,24.03
2018-12-17T22:28:44.958Z,23.23
2018-12-17T22:31:12.173Z,24.43
2018-12-17T22:33:39.598Z,23.27
2018-12-17T22:36:06.877Z,23.30
2018-12-17T22:38:34.068Z,23.43
2018-12-17T22:41:01.403Z,23.30
2018-12-17T22:43:28.650Z,23.33
2018-12-17T22:45:55.910Z,22.53
2018-12-17T22:48:23.275Z,22.27
2018-12-17T22:50:50.557Z,24.03
2018-12-17T22:53:17.764Z,22.93
2018-12-17T22:55:44.952Z,23.33
2018-12-17T22:58:12.249Z,21.97
2018-12-17T23:00:40.380Z,21.20
2018-12-17T23:03:08.065Z,21.30
2018-12-17T23:05:35.612Z,22.40
2018-12-17T23:08:02.957Z,23.13
2018-12-17T23:10:43.433Z,22.53
2018-12-17T23:13:22.148Z,22.17
2018-12-17T23:16:06.150Z,22.67
2018-12-17T23:18:35.042Z,22.50
2018-12-17T23:21:02.769Z,22.33
2018-12-17T23:23:30.141Z,22.97
2018-12-17T23:25:57.456Z,22.90
2018-12-17T23:28:24.665Z,22.87
2018-12-17T23:30:52.000Z,20.97
2018-12-17T23:33:19.201Z,21.30
2018-12-17T23:35:46.520Z,21.73
2018-12-17T23:38:13.856Z,21.67
2018-12-17T23:40:41.053Z,22.70
2018-12-17T23:43:08.291Z,22.87
2018-12-17T23:45:35.668Z,23.80
2018-12-17T23:48:03.112Z,25.03
2018-12-17T23:50:30.393Z,24.00
2018-12-17T23:52:57.777Z,25.40
2018-12-17T23:55:24.988Z,25.23
2018-12-17T23:57:52.184Z,23.33
